createdAt,value
2023-03-19T00:00:29.681Z,4.60
2023-03-19T00:02:57.093Z,5.80
2023-03-19T00:05:24.539Z,3.45
2023-03-19T00:07:51.776Z,4.82
2023-03-19T00:10:19.113Z,3.88
2023-03-19T00:12:46.602Z,6.53
2023-03-19T00:15:15.386Z,3.50
2023-03-19T00:17:43.450Z,4.10
2023-03-19T00:20:12.371Z,3.03
2023-03-19T00:22:40.229Z,4.03
2023-03-19T00:25:08.486Z,3.08
2023-03-19T00:27:36.308Z,5.32
2023-03-19T00:30:04.964Z,6.32
2023-03-19T00:32:34.079Z,4.18
2023-03-19T00:35:01.552Z,3.60
2023-03-19T00:37:28.898Z,3.70
2023-03-19T00:39:56.326Z,3.63
2023-03-19T00:42:23.637Z,3.55
2023-03-19T00:44:51.214Z,3.30
2023-03-19T00:47:18.620Z,3.92
2023-03-19T00:49:45.863Z,3.22
2023-03-19T00:52:13.193Z,5.60
2023-03-19T00:54:40.697Z,4.53
2023-03-19T00:57:08.024Z,3.42
2023-03-19T00:59:35.412Z,3.47
2023-03-19T01:02:02.860Z,3.45
2023-03-19T01:04:30.151Z,2.30
2023-03-19T01:09:26.113Z,3.67
2023-03-19T01:11:53.356Z,2.30
2023-03-19T01:14:20.587Z,2.40
2023-03-19T01:16:47.852Z,3.55
2023-03-19T01:19:15.996Z,2.78
2023-03-19T01:21:46.539Z,2.40
2023-03-19T01:24:14.109Z,4.55
2023-03-19T01:26:41.605Z,4.10
2023-03-19T01:29:11.737Z,2.38
2023-03-19T01:31:39.110Z,2.97
2023-03-19T01:34:06.628Z,2.65
2023-03-19T01:36:33.860Z,2.72
2023-03-19T01:39:01.737Z,2.40
2023-03-19T01:41:29.010Z,2.38
2023-03-19T01:43:56.240Z,2.60
2023-03-19T01:46:37.684Z,2.90
2023-03-19T01:49:07.744Z,2.90
2023-03-19T01:51:40.672Z,2.30
2023-03-19T01:54:09.566Z,3.03
2023-03-19T01:56:38.420Z,3.88
2023-03-19T01:59:09.837Z,2.67
2023-03-19T02:01:38.847Z,4.90
2023-03-19T02:04:07.123Z,4.07
2023-03-19T02:06:35.159Z,7.15
2023-03-19T02:09:02.685Z,3.65
2023-03-19T02:11:29.973Z,3.88
2023-03-19T02:13:57.330Z,3.65
2023-03-19T02:16:24.665Z,3.13
2023-03-19T02:18:52.099Z,4.03
2023-03-19T02:21:21.779Z,5.68
2023-03-19T02:23:51.768Z,3.45
2023-03-19T02:26:23.409Z,3.47
2023-03-19T02:28:52.172Z,4.80
2023-03-19T02:31:20.792Z,11.05
2023-03-19T02:34:06.206Z,6.35
2023-03-19T02:36:43.698Z,3.70
2023-03-19T02:39:21.611Z,4.50
2023-03-19T02:41:49.424Z,3.00
2023-03-19T02:44:20.043Z,4.00
2023-03-19T02:46:47.548Z,3.00
2023-03-19T02:49:15.372Z,3.95
2023-03-19T02:51:42.760Z,3.20
2023-03-19T02:54:10.070Z,3.65
2023-03-19T02:56:38.103Z,2.30
2023-03-19T02:59:05.479Z,4.25
2023-03-19T03:01:32.838Z,4.00
2023-03-19T03:04:00.100Z,3.35
2023-03-19T03:06:27.477Z,3.30
2023-03-19T03:08:55.329Z,3.03
2023-03-19T03:11:22.982Z,7.25
2023-03-19T03:13:50.221Z,3.30
2023-03-19T03:16:17.548Z,3.20
2023-03-19T03:18:44.839Z,3.67
2023-03-19T03:21:12.083Z,4.90
2023-03-19T03:23:39.318Z,3.40
2023-03-19T03:26:07.442Z,3.00
2023-03-19T03:28:34.682Z,3.30
2023-03-19T03:31:02.485Z,4.50
2023-03-19T03:33:29.742Z,4.38
2023-03-19T03:35:57.328Z,4.13
2023-03-19T03:38:24.749Z,4.43
2023-03-19T03:40:55.264Z,4.30
2023-03-19T03:43:22.749Z,2.95
2023-03-19T03:45:50.151Z,3.40
2023-03-19T03:48:18.139Z,3.10
2023-03-19T03:50:46.027Z,4.80
2023-03-19T03:53:13.301Z,3.47
2023-03-19T03:55:41.228Z,2.78
2023-03-19T03:58:08.507Z,4.15
2023-03-19T04:00:36.017Z,6.28
2023-03-19T04:03:03.441Z,4.60
2023-03-19T04:05:31.110Z,5.00
2023-03-19T04:07:58.584Z,2.90
2023-03-19T04:10:26.048Z,4.18
2023-03-19T04:12:53.291Z,5.22
2023-03-19T04:15:20.670Z,4.90
2023-03-19T04:17:47.946Z,2.88
2023-03-19T04:20:18.784Z,4.40
2023-03-19T04:22:46.718Z,3.25
2023-03-19T04:25:13.998Z,4.03
2023-03-19T04:27:41.275Z,3.17
2023-03-19T04:30:09.567Z,4.72
2023-03-19T04:32:37.176Z,3.15
2023-03-19T04:35:04.506Z,4.07
2023-03-19T04:37:31.739Z,3.13
2023-03-19T04:39:59.634Z,3.25
2023-03-19T04:42:26.892Z,6.78
2023-03-19T04:44:54.587Z,3.55
2023-03-19T04:47:22.060Z,5.43
2023-03-19T04:49:49.340Z,2.80
2023-03-19T04:52:16.584Z,4.32
2023-03-19T04:54:43.825Z,3.75
2023-03-19T04:57:11.482Z,4.30
2023-03-19T04:59:38.716Z,3.42
2023-03-19T05:02:06.308Z,4.10
2023-03-19T05:04:33.628Z,3.00
2023-03-19T05:07:01.029Z,3.83
2023-03-19T05:09:29.010Z,4.05
2023-03-19T05:11:56.735Z,3.28
2023-03-19T05:14:24.033Z,5.43
2023-03-19T05:16:52.162Z,5.32
2023-03-19T05:19:19.376Z,3.50
2023-03-19T05:21:46.688Z,10.50
2023-03-19T05:24:14.014Z,2.95
2023-03-19T05:26:41.503Z,9.52
2023-03-19T05:29:11.003Z,5.80
2023-03-19T05:31:39.048Z,5.82
2023-03-19T05:34:06.383Z,4.25
2023-03-19T05:36:33.717Z,3.72
2023-03-19T05:39:02.131Z,3.22
2023-03-19T05:41:29.383Z,3.67
2023-03-19T05:43:56.619Z,5.28
2023-03-19T05:46:24.560Z,3.22
2023-03-19T05:48:52.033Z,4.53
2023-03-19T05:51:19.276Z,4.72
2023-03-19T05:53:47.834Z,5.40
2023-03-19T05:56:15.060Z,2.75
2023-03-19T05:58:42.330Z,4.72
2023-03-19T06:01:09.874Z,5.38
2023-03-19T06:03:37.392Z,4.82
2023-03-19T06:06:04.828Z,5.40
2023-03-19T06:08:32.407Z,4.22
2023-03-19T06:10:59.689Z,5.22
2023-03-19T06:13:27.183Z,7.35
2023-03-19T06:15:54.470Z,5.45
2023-03-19T06:18:21.758Z,5.07
2023-03-19T06:20:49.058Z,4.35
2023-03-19T06:23:16.525Z,3.38
2023-03-19T06:25:43.873Z,3.42
2023-03-19T06:28:11.741Z,3.45
2023-03-19T06:30:39.023Z,4.10
2023-03-19T06:33:06.591Z,3.58
2023-03-19T06:35:33.865Z,3.90
2023-03-19T06:38:01.290Z,4.63
2023-03-19T06:40:28.620Z,4.28
2023-03-19T06:42:57.299Z,4.10
2023-03-19T06:45:24.721Z,4.05
2023-03-19T06:47:53.564Z,4.28
2023-03-19T06:50:21.610Z,3.65
2023-03-19T06:52:48.878Z,6.90
2023-03-19T06:55:16.515Z,4.20
2023-03-19T06:57:43.756Z,6.20
2023-03-19T07:00:11.691Z,6.53
2023-03-19T07:02:39.030Z,3.95
2023-03-19T07:05:06.626Z,5.55
2023-03-19T07:07:33.921Z,6.47
2023-03-19T07:10:01.363Z,5.45
2023-03-19T07:12:28.632Z,6.38
2023-03-19T07:14:58.994Z,8.25
2023-03-19T07:17:26.791Z,5.70
2023-03-19T07:19:54.155Z,6.15
2023-03-19T07:22:21.896Z,4.85
2023-03-19T07:24:49.189Z,5.78
2023-03-19T07:27:16.617Z,3.08
2023-03-19T07:29:43.863Z,3.20
2023-03-19T07:32:11.782Z,4.18
2023-03-19T07:34:39.156Z,6.03
2023-03-19T07:37:06.442Z,3.42
2023-03-19T07:39:34.211Z,3.53
2023-03-19T07:42:01.476Z,5.28
2023-03-19T07:44:28.738Z,4.95
2023-03-19T07:46:55.961Z,3.33
2023-03-19T07:49:24.049Z,3.50
2023-03-19T07:51:51.368Z,6.30
2023-03-19T07:54:18.717Z,5.93
2023-03-19T07:56:46.122Z,7.88
2023-03-19T07:59:13.452Z,5.63
2023-03-19T08:01:40.717Z,8.52
2023-03-19T08:04:08.229Z,7.63
2023-03-19T08:06:35.529Z,6.93
2023-03-19T08:09:02.813Z,6.60
2023-03-19T08:11:30.223Z,11.32
2023-03-19T08:13:57.470Z,6.97
2023-03-19T08:16:24.878Z,11.30
2023-03-19T08:18:52.606Z,7.72
2023-03-19T08:21:20.053Z,8.52
2023-03-19T08:23:47.328Z,7.07
2023-03-19T08:26:14.610Z,9.57
2023-03-19T08:28:41.896Z,7.38
2023-03-19T08:31:13.434Z,7.47
2023-03-19T08:33:41.432Z,7.72
2023-03-19T08:36:09.960Z,9.35
2023-03-19T08:38:37.643Z,9.45
2023-03-19T08:41:06.292Z,7.22
2023-03-19T08:43:34.313Z,10.27
2023-03-19T08:46:02.164Z,8.07
2023-03-19T08:48:29.595Z,7.63
2023-03-19T08:50:57.949Z,7.28
2023-03-19T08:53:25.642Z,6.90
2023-03-19T08:55:56.838Z,5.00
2023-03-19T08:58:24.374Z,7.40
2023-03-19T09:00:51.955Z,4.40
2023-03-19T09:03:19.162Z,5.32
2023-03-19T09:05:46.632Z,5.68
2023-03-19T09:08:14.321Z,5.43
2023-03-19T09:10:41.737Z,6.38
2023-03-19T09:13:08.996Z,4.43
2023-03-19T09:15:36.584Z,5.05
2023-03-19T09:18:04.252Z,5.20
2023-03-19T09:20:31.598Z,5.05
2023-03-19T09:22:58.813Z,6.72
2023-03-19T09:25:26.220Z,6.32
2023-03-19T09:27:53.479Z,5.35
2023-03-19T09:30:20.788Z,7.18
2023-03-19T09:32:48.268Z,8.90
2023-03-19T09:35:16.014Z,5.95
2023-03-19T09:37:43.297Z,4.20
2023-03-19T09:40:31.064Z,5.10
2023-03-19T09:43:17.047Z,6.10
2023-03-19T09:45:46.743Z,5.15
2023-03-19T09:48:18.589Z,6.80
2023-03-19T09:50:46.836Z,4.10
2023-03-19T09:53:20.382Z,5.15
2023-03-19T09:55:47.631Z,5.53
2023-03-19T09:58:26.881Z,6.80
2023-03-19T10:00:54.997Z,5.32
2023-03-19T10:03:40.573Z,4.57
2023-03-19T10:08:53.572Z,4.30
2023-03-19T10:11:24.813Z,6.32
2023-03-19T10:14:07.435Z,3.72
2023-03-19T10:16:36.040Z,4.30
2023-03-19T10:19:06.599Z,5.60
2023-03-19T10:21:36.926Z,5.93
2023-03-19T10:24:13.882Z,4.93
2023-03-19T10:26:43.207Z,4.53
2023-03-19T10:29:20.464Z,5.07
2023-03-19T10:31:58.354Z,4.35
2023-03-19T10:34:29.526Z,5.07
2023-03-19T10:37:23.116Z,5.47
2023-03-19T10:39:51.619Z,4.30
2023-03-19T10:42:27.973Z,4.65
2023-03-19T10:45:01.223Z,6.88
2023-03-19T10:47:28.610Z,5.50
2023-03-19T10:49:56.921Z,5.55
2023-03-19T10:52:32.094Z,4.85
2023-03-19T10:55:05.391Z,4.75
2023-03-19T10:57:32.682Z,4.95
2023-03-19T11:00:04.642Z,3.85
2023-03-19T11:02:32.551Z,6.53
2023-03-19T11:05:20.377Z,4.28
2023-03-19T11:07:51.215Z,4.43
2023-03-19T11:10:18.904Z,6.78
2023-03-19T11:12:52.656Z,4.70
2023-03-19T11:15:24.067Z,6.15
2023-03-19T11:17:57.755Z,6.63
2023-03-19T11:20:36.623Z,4.40
2023-03-19T11:23:09.413Z,5.05
2023-03-19T11:25:38.633Z,5.05
2023-03-19T11:28:08.940Z,4.47
2023-03-19T11:30:42.606Z,7.60
2023-03-19T11:33:19.861Z,4.80
2023-03-19T11:36:02.574Z,4.70
2023-03-19T11:38:41.042Z,4.55
2023-03-19T11:41:34.382Z,4.90
2023-03-19T11:44:27.833Z,7.65
2023-03-19T11:46:55.732Z,5.30
2023-03-19T11:49:23.051Z,6.07
2023-03-19T11:51:51.857Z,3.88
2023-03-19T11:54:24.267Z,5.35
2023-03-19T11:57:02.223Z,3.58
2023-03-19T11:59:33.218Z,2.53
2023-03-19T12:02:19.003Z,2.92
2023-03-19T12:04:50.210Z,3.38
2023-03-19T12:07:23.771Z,2.90
2023-03-19T12:10:03.755Z,2.88
2023-03-19T12:12:49.932Z,2.03
2023-03-19T12:15:19.936Z,3.22
2023-03-19T12:17:53.614Z,3.30
2023-03-19T12:20:39.728Z,2.17
2023-03-19T12:23:27.199Z,3.33
2023-03-19T12:26:06.133Z,3.45
2023-03-19T12:28:34.145Z,4.72
2023-03-19T12:31:20.216Z,4.13
2023-03-19T12:33:58.368Z,3.72
2023-03-19T12:36:33.808Z,6.50
2023-03-19T12:39:05.450Z,3.97
2023-03-19T12:41:33.855Z,3.72
2023-03-19T12:44:11.718Z,3.58
2023-03-19T12:46:48.755Z,4.03
2023-03-19T12:49:19.708Z,3.08
2023-03-19T12:51:53.550Z,3.70
2023-03-19T12:54:20.987Z,4.80
2023-03-19T12:57:07.357Z,3.88
2023-03-19T12:59:41.577Z,4.32
2023-03-19T13:02:11.906Z,4.13
2023-03-19T13:05:09.069Z,3.95
2023-03-19T13:07:55.117Z,3.17
2023-03-19T13:10:22.903Z,2.75
2023-03-19T13:12:51.577Z,3.38
2023-03-19T13:15:18.896Z,3.63
2023-03-19T13:18:06.173Z,2.20
2023-03-19T13:20:39.302Z,2.88
2023-03-19T13:23:07.916Z,11.52
2023-03-19T13:25:40.826Z,2.58
2023-03-19T13:28:12.228Z,2.95
2023-03-19T13:30:40.594Z,2.95
2023-03-19T13:33:13.895Z,3.72
2023-03-19T13:35:44.300Z,3.85
2023-03-19T13:38:11.563Z,3.78
2023-03-19T13:40:55.121Z,3.33
2023-03-19T13:43:29.167Z,3.38
2023-03-19T13:46:17.829Z,3.37
2023-03-19T13:48:47.946Z,3.38
2023-03-19T13:51:25.899Z,2.00
2023-03-19T13:53:53.203Z,2.10
2023-03-19T13:56:29.629Z,3.25
2023-03-19T13:59:16.065Z,3.08
2023-03-19T14:01:47.569Z,3.45
2023-03-19T14:04:15.005Z,2.53
2023-03-19T14:06:45.458Z,2.67
2023-03-19T14:09:31.506Z,1.60
2023-03-19T14:12:11.314Z,4.50
2023-03-19T14:14:43.155Z,3.55
2023-03-19T14:17:36.645Z,3.63
2023-03-19T14:20:21.043Z,2.17
2023-03-19T14:22:56.577Z,2.22
2023-03-19T14:25:26.288Z,2.22
2023-03-19T14:27:59.365Z,3.60
2023-03-19T14:30:33.066Z,2.80
2023-03-19T14:33:02.507Z,2.10
2023-03-19T14:35:33.243Z,1.85
2023-03-19T14:38:01.858Z,3.20
2023-03-19T14:40:37.238Z,2.97
2023-03-19T14:43:10.792Z,1.30
2023-03-19T14:46:07.472Z,2.45
2023-03-19T14:48:43.797Z,1.48
2023-03-19T14:51:20.531Z,2.60
2023-03-19T14:54:21.537Z,6.07
2023-03-19T14:56:50.577Z,4.50
2023-03-19T14:59:18.641Z,7.57
2023-03-19T15:01:50.348Z,7.10
2023-03-19T15:04:18.079Z,2.30
2023-03-19T15:06:53.768Z,4.38
2023-03-19T15:09:30.012Z,5.75
2023-03-19T15:12:16.187Z,5.68
2023-03-19T15:14:49.365Z,4.25
2023-03-19T15:17:24.498Z,3.22
2023-03-19T15:22:21.906Z,1.73
2023-03-19T15:24:49.728Z,2.97
2023-03-19T15:27:22.081Z,2.63
2023-03-19T15:29:51.580Z,2.25
2023-03-19T15:35:25.092Z,6.45
2023-03-19T15:37:54.623Z,1.42
2023-03-19T15:40:22.464Z,1.23
2023-03-19T15:42:51.538Z,1.27
2023-03-19T15:45:21.038Z,1.02
2023-03-19T15:47:51.272Z,1.50
2023-03-19T15:50:20.353Z,2.08
2023-03-19T15:52:50.338Z,1.27
2023-03-19T15:55:17.962Z,5.57
2023-03-19T15:57:45.935Z,3.38
2023-03-19T16:00:14.815Z,3.53
2023-03-19T16:02:43.206Z,3.22
2023-03-19T16:05:29.919Z,2.50
2023-03-19T16:08:02.108Z,5.00
2023-03-19T16:10:31.046Z,2.63
2023-03-19T16:12:58.299Z,5.05
2023-03-19T16:15:29.317Z,2.80
2023-03-19T16:17:57.054Z,4.38
2023-03-19T16:20:24.288Z,3.63
2023-03-19T16:22:54.616Z,2.75
2023-03-19T16:25:25.249Z,3.22
2023-03-19T16:27:52.597Z,5.32
2023-03-19T16:30:24.300Z,2.50
2023-03-19T16:33:01.925Z,2.90
2023-03-19T16:35:30.494Z,10.45
2023-03-19T16:38:16.177Z,3.70
2023-03-19T16:43:18.107Z,4.28
2023-03-19T16:45:46.211Z,2.53
2023-03-19T16:48:13.579Z,3.95
2023-03-19T16:50:43.613Z,7.00
2023-03-19T16:53:14.003Z,7.78
2023-03-19T16:55:42.209Z,3.92
2023-03-19T16:58:14.286Z,2.97
2023-03-19T17:00:43.710Z,3.10
2023-03-19T17:03:17.313Z,4.30
2023-03-19T17:05:45.480Z,3.05
2023-03-19T17:08:13.674Z,2.60
2023-03-19T17:10:43.521Z,2.05
2023-03-19T17:13:16.042Z,2.67
2023-03-19T17:15:43.542Z,3.00
2023-03-19T17:18:15.410Z,2.55
2023-03-19T17:20:47.221Z,4.05
2023-03-19T17:23:14.905Z,2.78
2023-03-19T17:25:42.527Z,118.57
2023-03-19T17:28:09.832Z,117.93
2023-03-19T17:30:38.424Z,96.78
2023-03-19T17:33:05.971Z,39.20
2023-03-19T17:35:34.430Z,4.13
2023-03-19T17:38:02.292Z,3.53
2023-03-19T17:40:29.700Z,4.28
2023-03-19T17:42:57.349Z,5.18
2023-03-19T17:45:29.808Z,5.18
2023-03-19T17:47:59.009Z,4.95
2023-03-19T17:50:27.253Z,19.08
2023-03-19T17:52:54.807Z,19.33
2023-03-19T17:55:26.467Z,18.80
2023-03-19T17:57:54.345Z,16.10
2023-03-19T18:00:23.247Z,14.65
2023-03-19T18:02:51.719Z,9.20
2023-03-19T18:05:20.900Z,7.15
2023-03-19T18:07:49.296Z,5.78
2023-03-19T18:10:16.721Z,3.65
2023-03-19T18:12:44.405Z,2.40
2023-03-19T18:15:12.702Z,3.72
2023-03-19T18:17:41.133Z,3.63
2023-03-19T18:20:08.782Z,3.95
2023-03-19T18:22:36.680Z,3.90
2023-03-19T18:25:03.989Z,4.15
2023-03-19T18:27:31.279Z,4.85
2023-03-19T18:29:58.506Z,3.83
2023-03-19T18:32:28.507Z,4.35
2023-03-19T18:34:55.830Z,5.43
2023-03-19T18:37:23.112Z,4.95
2023-03-19T18:39:50.443Z,8.13
2023-03-19T18:42:17.770Z,6.68
2023-03-19T18:44:45.124Z,5.93
2023-03-19T18:47:14.635Z,6.30
2023-03-19T18:49:42.403Z,6.57
2023-03-19T18:52:13.121Z,7.53
2023-03-19T18:54:40.506Z,6.15
2023-03-19T18:57:11.051Z,9.80
2023-03-19T18:59:38.415Z,8.15
2023-03-19T19:02:14.910Z,6.85
2023-03-19T19:04:42.247Z,5.75
2023-03-19T19:07:13.554Z,8.00
2023-03-19T19:09:40.835Z,5.75
2023-03-19T19:12:09.412Z,6.15
2023-03-19T19:14:38.585Z,6.00
2023-03-19T19:17:06.509Z,8.93
2023-03-19T19:19:33.740Z,8.18
2023-03-19T19:22:01.007Z,9.07
2023-03-19T19:24:28.232Z,7.28
2023-03-19T19:26:56.940Z,6.57
2023-03-19T19:29:25.732Z,9.75
2023-03-19T19:31:53.739Z,6.88
2023-03-19T19:34:21.092Z,5.75
2023-03-19T19:36:48.443Z,6.20
2023-03-19T19:39:15.769Z,6.72
2023-03-19T19:41:43.888Z,8.85
2023-03-19T19:44:19.118Z,5.70
2023-03-19T19:49:14.983Z,6.00
2023-03-19T19:51:42.307Z,6.72
2023-03-19T19:54:09.668Z,5.03
2023-03-19T19:56:37.530Z,5.25
2023-03-19T19:59:06.091Z,4.40
2023-03-19T20:01:33.382Z,8.32
2023-03-19T20:04:00.952Z,7.32
2023-03-19T20:06:28.289Z,4.30
2023-03-19T20:08:55.532Z,4.90
2023-03-19T20:11:24.312Z,5.82
2023-03-19T20:13:54.609Z,7.38
2023-03-19T20:16:23.591Z,4.80
2023-03-19T20:18:53.880Z,5.60
2023-03-19T20:21:21.798Z,5.18
2023-03-19T20:23:53.113Z,5.78
2023-03-19T20:26:21.762Z,7.32
2023-03-19T20:28:49.329Z,5.25
2023-03-19T20:31:17.661Z,4.15
2023-03-19T20:33:44.966Z,4.97
2023-03-19T20:36:15.939Z,3.53
2023-03-19T20:38:43.429Z,4.38
2023-03-19T20:41:16.666Z,4.70
2023-03-19T20:43:43.979Z,5.28
2023-03-19T20:46:11.648Z,6.72
2023-03-19T20:48:39.200Z,5.95
2023-03-19T20:51:07.580Z,7.60
2023-03-19T20:53:34.859Z,5.18
2023-03-19T20:56:04.398Z,7.53
2023-03-19T20:58:37.027Z,5.40
2023-03-19T21:01:04.373Z,4.38
2023-03-19T21:03:32.379Z,4.60
2023-03-19T21:06:02.054Z,5.65
2023-03-19T21:08:35.209Z,6.97
2023-03-19T21:11:02.937Z,6.55
2023-03-19T21:13:30.751Z,4.60
2023-03-19T21:15:58.490Z,4.88
2023-03-19T21:18:25.840Z,4.78
2023-03-19T21:20:55.040Z,4.03
2023-03-19T21:23:22.254Z,4.28
2023-03-19T21:25:49.709Z,3.97
2023-03-19T21:28:24.866Z,5.53
2023-03-19T21:30:52.550Z,3.83
2023-03-19T21:33:25.270Z,4.38
2023-03-19T21:35:53.120Z,4.22
2023-03-19T21:38:20.756Z,4.53
2023-03-19T21:40:48.584Z,7.97
2023-03-19T21:43:18.092Z,3.53
2023-03-19T21:45:45.602Z,3.75
2023-03-19T21:48:24.326Z,6.47
2023-03-19T21:50:52.091Z,5.57
2023-03-19T21:53:19.932Z,4.13
2023-03-19T21:55:47.268Z,2.28
2023-03-19T21:58:15.682Z,3.03
2023-03-19T22:00:43.023Z,4.13
2023-03-19T22:03:20.541Z,5.43
2023-03-19T22:05:49.965Z,3.60
2023-03-19T22:08:18.270Z,4.28
2023-03-19T22:10:46.021Z,4.15
2023-03-19T22:13:21.766Z,5.35
2023-03-19T22:15:50.597Z,4.63
2023-03-19T22:18:18.899Z,4.10
2023-03-19T22:20:46.859Z,4.30
2023-03-19T22:23:14.775Z,2.83
2023-03-19T22:25:44.006Z,6.60
2023-03-19T22:28:43.757Z,4.22
2023-03-19T22:31:11.006Z,3.90
2023-03-19T22:33:38.250Z,3.08
2023-03-19T22:36:05.672Z,3.65
2023-03-19T22:38:32.931Z,4.82
2023-03-19T22:41:00.414Z,4.82
2023-03-19T22:43:27.650Z,3.45
2023-03-19T22:45:56.121Z,4.25
2023-03-19T22:48:23.749Z,2.97
2023-03-19T22:50:51.203Z,3.17
2023-03-19T22:53:22.247Z,2.85
2023-03-19T22:55:49.567Z,3.42
2023-03-19T22:58:16.991Z,7.28
2023-03-19T23:00:44.405Z,2.13
2023-03-19T23:03:17.848Z,5.93
2023-03-19T23:05:46.586Z,3.15
2023-03-19T23:08:17.687Z,3.28
2023-03-19T23:10:45.051Z,2.20
2023-03-19T23:13:13.951Z,2.70
2023-03-19T23:15:41.644Z,3.58
2023-03-19T23:18:23.656Z,1.27
2023-03-19T23:20:51.006Z,3.70
2023-03-19T23:23:18.327Z,3.13
2023-03-19T23:25:47.042Z,2.00
2023-03-19T23:28:20.654Z,4.07
2023-03-19T23:30:48.803Z,4.75
2023-03-19T23:33:16.193Z,3.60
2023-03-19T23:35:44.110Z,2.85
2023-03-19T23:38:12.061Z,3.08
2023-03-19T23:40:41.293Z,2.80
2023-03-19T23:43:16.365Z,4.28
2023-03-19T23:45:44.821Z,3.97
2023-03-19T23:48:14.360Z,4.20
2023-03-19T23:50:42.097Z,3.70
2023-03-19T23:53:18.720Z,3.58
2023-03-19T23:55:47.236Z,3.17
2023-03-19T23:58:14.690Z,3.97
